sensor_id;sensor_type;location;lat;lon;timestamp;temperature;humidity
41058;DHT22;66768;48.884;2.258;2023-12-28T00:02:06;12.40;99.90
41058;DHT22;66768;48.884;2.258;2023-12-28T00:04:34;12.30;99.90
41058;DHT22;66768;48.884;2.258;2023-12-28T00:07:03;12.40;99.90
41058;DHT22;66768;48.884;2.258;2023-12-28T00:09:30;12.40;99.90
41058;DHT22;66768;48.884;2.258;2023-12-28T00:11:58;12.40;99.90
41058;DHT22;66768;48.884;2.258;2023-12-28T00:14:25;12.40;99.90
41058;DHT22;66768;48.884;2.258;2023-12-28T00:16:52;12.40;99.90
41058;DHT22;66768;48.884;2.258;2023-12-28T00:19:19;12.40;99.90
41058;DHT22;66768;48.884;2.258;2023-12-28T00:21:46;12.40;99.90
41058;DHT22;66768;48.884;2.258;2023-12-28T00:24:15;12.40;99.90
41058;DHT22;66768;48.884;2.258;2023-12-28T00:26:42;12.40;99.90
41058;DHT22;66768;48.884;2.258;2023-12-28T00:29:09;12.40;99.90
41058;DHT22;66768;48.884;2.258;2023-12-28T00:31:36;12.40;99.90
41058;DHT22;66768;48.884;2.258;2023-12-28T00:34:02;12.40;99.90
41058;DHT22;66768;48.884;2.258;2023-12-28T00:36:29;12.40;99.90
41058;DHT22;66768;48.884;2.258;2023-12-28T00:38:57;12.40;99.90
41058;DHT22;66768;48.884;2.258;2023-12-28T00:41:25;12.40;99.90
41058;DHT22;66768;48.884;2.258;2023-12-28T00:43:52;12.40;99.90
41058;DHT22;66768;48.884;2.258;2023-12-28T00:46:19;12.40;99.90
41058;DHT22;66768;48.884;2.258;2023-12-28T00:48:45;12.40;99.90
41058;DHT22;66768;48.884;2.258;2023-12-28T00:51:14;12.40;99.90
41058;DHT22;66768;48.884;2.258;2023-12-28T00:53:41;12.50;99.90
41058;DHT22;66768;48.884;2.258;2023-12-28T00:56:09;12.40;99.90
41058;DHT22;66768;48.884;2.258;2023-12-28T00:58:40;12.40;99.90
41058;DHT22;66768;48.884;2.258;2023-12-28T01:01:09;12.40;99.90
41058;DHT22;66768;48.884;2.258;2023-12-28T01:03:35;12.40;99.90
41058;DHT22;66768;48.884;2.258;2023-12-28T01:06:03;12.40;99.90
41058;DHT22;66768;48.884;2.258;2023-12-28T01:08:30;12.40;99.90
41058;DHT22;66768;48.884;2.258;2023-12-28T01:10:59;12.40;99.90
41058;DHT22;66768;48.884;2.258;2023-12-28T01:13:26;12.40;99.90
41058;DHT22;66768;48.884;2.258;2023-12-28T01:15:55;12.40;99.90
41058;DHT22;66768;48.884;2.258;2023-12-28T01:18:22;12.40;99.90
41058;DHT22;66768;48.884;2.258;2023-12-28T01:20:48;12.40;99.90
41058;DHT22;66768;48.884;2.258;2023-12-28T01:23:15;12.40;99.90
41058;DHT22;66768;48.884;2.258;2023-12-28T01:25:42;12.40;99.90
41058;DHT22;66768;48.884;2.258;2023-12-28T01:28:09;12.30;99.90
41058;DHT22;66768;48.884;2.258;2023-12-28T01:30:36;12.30;99.90
41058;DHT22;66768;48.884;2.258;2023-12-28T01:33:04;12.30;99.90
41058;DHT22;66768;48.884;2.258;2023-12-28T01:35:31;12.30;99.90
41058;DHT22;66768;48.884;2.258;2023-12-28T01:37:58;12.30;99.90
41058;DHT22;66768;48.884;2.258;2023-12-28T01:40:26;12.30;99.90
41058;DHT22;66768;48.884;2.258;2023-12-28T01:42:53;12.30;99.90
41058;DHT22;66768;48.884;2.258;2023-12-28T01:45:20;12.30;99.90
41058;DHT22;66768;48.884;2.258;2023-12-28T01:47:48;12.30;99.90
41058;DHT22;66768;48.884;2.258;2023-12-28T01:50:17;12.30;99.90
41058;DHT22;66768;48.884;2.258;2023-12-28T01:52:45;12.30;99.90
41058;DHT22;66768;48.884;2.258;2023-12-28T01:55:13;12.20;99.90
41058;DHT22;66768;48.884;2.258;2023-12-28T01:57:40;12.30;99.90
41058;DHT22;66768;48.884;2.258;2023-12-28T02:00:08;12.20;99.90
41058;DHT22;66768;48.884;2.258;2023-12-28T02:02:35;12.20;99.90
41058;DHT22;66768;48.884;2.258;2023-12-28T02:05:03;12.30;99.90
41058;DHT22;66768;48.884;2.258;2023-12-28T02:07:32;12.20;99.90
41058;DHT22;66768;48.884;2.258;2023-12-28T02:09:59;12.30;99.90
41058;DHT22;66768;48.884;2.258;2023-12-28T02:12:26;12.30;99.90
41058;DHT22;66768;48.884;2.258;2023-12-28T02:14:53;12.30;99.90
41058;DHT22;66768;48.884;2.258;2023-12-28T02:17:23;12.20;99.90
41058;DHT22;66768;48.884;2.258;2023-12-28T02:19:54;12.20;99.90
41058;DHT22;66768;48.884;2.258;2023-12-28T02:22:24;12.20;99.90
41058;DHT22;66768;48.884;2.258;2023-12-28T02:25:03;12.20;99.90
41058;DHT22;66768;48.884;2.258;2023-12-28T02:27:30;12.20;99.90
41058;DHT22;66768;48.884;2.258;2023-12-28T02:29:57;12.20;99.90
41058;DHT22;66768;48.884;2.258;2023-12-28T02:32:28;12.30;99.90
41058;DHT22;66768;48.884;2.258;2023-12-28T02:35:03;12.30;99.90
41058;DHT22;66768;48.884;2.258;2023-12-28T02:37:33;12.20;99.90
41058;DHT22;66768;48.884;2.258;2023-12-28T02:40:03;12.20;99.90
41058;DHT22;66768;48.884;2.258;2023-12-28T02:42:30;12.10;99.90
41058;DHT22;66768;48.884;2.258;2023-12-28T02:44:57;12.20;99.90
41058;DHT22;66768;48.884;2.258;2023-12-28T02:47:24;12.10;99.90
41058;DHT22;66768;48.884;2.258;2023-12-28T02:49:51;12.20;99.90
41058;DHT22;66768;48.884;2.258;2023-12-28T02:52:18;12.20;99.90
41058;DHT22;66768;48.884;2.258;2023-12-28T02:54:45;12.10;99.90
41058;DHT22;66768;48.884;2.258;2023-12-28T02:57:13;12.20;99.90
41058;DHT22;66768;48.884;2.258;2023-12-28T02:59:44;12.20;99.90
41058;DHT22;66768;48.884;2.258;2023-12-28T03:02:10;12.20;99.90
41058;DHT22;66768;48.884;2.258;2023-12-28T03:04:37;12.20;99.90
41058;DHT22;66768;48.884;2.258;2023-12-28T03:07:05;12.20;99.90
41058;DHT22;66768;48.884;2.258;2023-12-28T03:09:32;12.30;99.90
41058;DHT22;66768;48.884;2.258;2023-12-28T03:12:00;12.20;99.90
41058;DHT22;66768;48.884;2.258;2023-12-28T03:14:28;12.20;99.90
41058;DHT22;66768;48.884;2.258;2023-12-28T03:16:55;12.20;99.90
41058;DHT22;66768;48.884;2.258;2023-12-28T03:19:22;12.20;99.90
41058;DHT22;66768;48.884;2.258;2023-12-28T03:21:48;12.20;99.90
41058;DHT22;66768;48.884;2.258;2023-12-28T03:24:15;12.20;99.90
41058;DHT22;66768;48.884;2.258;2023-12-28T03:26:42;12.20;99.90
41058;DHT22;66768;48.884;2.258;2023-12-28T03:29:09;12.20;99.90
41058;DHT22;66768;48.884;2.258;2023-12-28T03:31:40;12.20;99.90
41058;DHT22;66768;48.884;2.258;2023-12-28T03:34:07;12.20;99.90
41058;DHT22;66768;48.884;2.258;2023-12-28T03:36:34;12.20;99.90
41058;DHT22;66768;48.884;2.258;2023-12-28T03:39:00;12.10;99.90
41058;DHT22;66768;48.884;2.258;2023-12-28T03:41:29;12.20;99.90
41058;DHT22;66768;48.884;2.258;2023-12-28T03:43:56;12.20;99.90
41058;DHT22;66768;48.884;2.258;2023-12-28T03:46:23;12.20;99.90
41058;DHT22;66768;48.884;2.258;2023-12-28T03:48:51;12.10;99.90
41058;DHT22;66768;48.884;2.258;2023-12-28T03:51:18;12.20;99.90
41058;DHT22;66768;48.884;2.258;2023-12-28T03:53:45;12.10;99.90
41058;DHT22;66768;48.884;2.258;2023-12-28T03:56:21;12.10;99.90
41058;DHT22;66768;48.884;2.258;2023-12-28T03:58:49;12.10;99.90
41058;DHT22;66768;48.884;2.258;2023-12-28T04:01:16;12.10;99.90
41058;DHT22;66768;48.884;2.258;2023-12-28T04:03:44;12.10;99.90
41058;DHT22;66768;48.884;2.258;2023-12-28T04:06:12;12.10;99.90
41058;DHT22;66768;48.884;2.258;2023-12-28T04:08:39;12.10;99.90
41058;DHT22;66768;48.884;2.258;2023-12-28T04:11:06;12.10;99.90
41058;DHT22;66768;48.884;2.258;2023-12-28T04:13:33;12.00;99.90
41058;DHT22;66768;48.884;2.258;2023-12-28T04:16:00;12.10;99.90
41058;DHT22;66768;48.884;2.258;2023-12-28T04:18:27;12.00;99.90
41058;DHT22;66768;48.884;2.258;2023-12-28T04:20:55;12.00;99.90
41058;DHT22;66768;48.884;2.258;2023-12-28T04:23:23;12.00;99.90
41058;DHT22;66768;48.884;2.258;2023-12-28T04:25:50;12.00;99.90
41058;DHT22;66768;48.884;2.258;2023-12-28T04:28:17;12.00;99.90
41058;DHT22;66768;48.884;2.258;2023-12-28T04:30:44;12.00;99.90
41058;DHT22;66768;48.884;2.258;2023-12-28T04:33:10;12.00;99.90
41058;DHT22;66768;48.884;2.258;2023-12-28T04:35:37;12.00;99.90
41058;DHT22;66768;48.884;2.258;2023-12-28T04:38:04;11.90;99.90
41058;DHT22;66768;48.884;2.258;2023-12-28T04:40:33;12.00;99.90
41058;DHT22;66768;48.884;2.258;2023-12-28T04:43:00;11.90;99.90
41058;DHT22;66768;48.884;2.258;2023-12-28T04:45:27;11.90;99.90
41058;DHT22;66768;48.884;2.258;2023-12-28T04:47:54;11.90;99.90
41058;DHT22;66768;48.884;2.258;2023-12-28T04:50:21;11.90;99.90
41058;DHT22;66768;48.884;2.258;2023-12-28T04:52:48;11.90;99.90
41058;DHT22;66768;48.884;2.258;2023-12-28T04:55:14;11.90;99.90
41058;DHT22;66768;48.884;2.258;2023-12-28T04:57:43;11.80;99.90
41058;DHT22;66768;48.884;2.258;2023-12-28T05:00:10;11.90;99.90
41058;DHT22;66768;48.884;2.258;2023-12-28T05:02:37;11.80;99.90
41058;DHT22;66768;48.884;2.258;2023-12-28T05:05:04;11.80;99.90
41058;DHT22;66768;48.884;2.258;2023-12-28T05:07:31;11.80;99.90
41058;DHT22;66768;48.884;2.258;2023-12-28T05:09:58;11.80;99.90
41058;DHT22;66768;48.884;2.258;2023-12-28T05:12:25;11.80;99.90
41058;DHT22;66768;48.884;2.258;2023-12-28T05:14:53;11.80;99.90
41058;DHT22;66768;48.884;2.258;2023-12-28T05:17:20;11.80;99.90
41058;DHT22;66768;48.884;2.258;2023-12-28T05:19:47;11.90;99.90
41058;DHT22;66768;48.884;2.258;2023-12-28T05:22:14;11.90;99.90
41058;DHT22;66768;48.884;2.258;2023-12-28T05:24:42;11.90;99.90
41058;DHT22;66768;48.884;2.258;2023-12-28T05:27:09;11.90;99.90
41058;DHT22;66768;48.884;2.258;2023-12-28T05:29:36;11.90;99.90
41058;DHT22;66768;48.884;2.258;2023-12-28T05:32:05;11.90;99.90
41058;DHT22;66768;48.884;2.258;2023-12-28T05:34:32;11.90;99.90
41058;DHT22;66768;48.884;2.258;2023-12-28T05:36:58;11.80;99.90
41058;DHT22;66768;48.884;2.258;2023-12-28T05:39:25;11.90;99.90
41058;DHT22;66768;48.884;2.258;2023-12-28T05:41:52;11.90;99.90
41058;DHT22;66768;48.884;2.258;2023-12-28T05:44:19;11.90;99.90
41058;DHT22;66768;48.884;2.258;2023-12-28T05:46:46;11.90;99.90
41058;DHT22;66768;48.884;2.258;2023-12-28T05:49:14;11.90;99.90
41058;DHT22;66768;48.884;2.258;2023-12-28T05:51:41;11.80;99.90
41058;DHT22;66768;48.884;2.258;2023-12-28T05:54:09;11.80;99.90
41058;DHT22;66768;48.884;2.258;2023-12-28T05:56:36;11.80;99.90
41058;DHT22;66768;48.884;2.258;2023-12-28T05:59:03;11.80;99.90
41058;DHT22;66768;48.884;2.258;2023-12-28T06:01:29;11.70;99.90
41058;DHT22;66768;48.884;2.258;2023-12-28T06:03:56;11.70;99.90
41058;DHT22;66768;48.884;2.258;2023-12-28T06:06:25;11.70;99.90
41058;DHT22;66768;48.884;2.258;2023-12-28T06:08:51;11.80;99.90
41058;DHT22;66768;48.884;2.258;2023-12-28T06:11:19;11.70;99.90
41058;DHT22;66768;48.884;2.258;2023-12-28T06:13:46;11.70;99.90
41058;DHT22;66768;48.884;2.258;2023-12-28T06:16:13;11.70;99.90
41058;DHT22;66768;48.884;2.258;2023-12-28T06:18:40;11.70;99.90
41058;DHT22;66768;48.884;2.258;2023-12-28T06:21:08;11.70;99.90
41058;DHT22;66768;48.884;2.258;2023-12-28T06:23:36;11.70;99.90
41058;DHT22;66768;48.884;2.258;2023-12-28T06:26:06;11.70;99.90
41058;DHT22;66768;48.884;2.258;2023-12-28T06:28:33;11.80;99.90
41058;DHT22;66768;48.884;2.258;2023-12-28T06:31:00;11.70;99.90
41058;DHT22;66768;48.884;2.258;2023-12-28T06:33:29;11.80;99.90
41058;DHT22;66768;48.884;2.258;2023-12-28T06:35:55;11.80;99.90
41058;DHT22;66768;48.884;2.258;2023-12-28T06:38:23;11.80;99.90
41058;DHT22;66768;48.884;2.258;2023-12-28T06:40:52;11.70;99.90
41058;DHT22;66768;48.884;2.258;2023-12-28T06:43:19;11.80;99.90
41058;DHT22;66768;48.884;2.258;2023-12-28T06:45:46;11.70;99.90
41058;DHT22;66768;48.884;2.258;2023-12-28T06:48:12;11.80;99.90
41058;DHT22;66768;48.884;2.258;2023-12-28T06:50:39;11.70;99.90
41058;DHT22;66768;48.884;2.258;2023-12-28T06:53:06;11.80;99.90
41058;DHT22;66768;48.884;2.258;2023-12-28T06:55:33;11.70;99.90
41058;DHT22;66768;48.884;2.258;2023-12-28T06:58:02;11.80;99.90
41058;DHT22;66768;48.884;2.258;2023-12-28T07:00:29;11.70;99.90
41058;DHT22;66768;48.884;2.258;2023-12-28T07:02:56;11.80;99.90
41058;DHT22;66768;48.884;2.258;2023-12-28T07:05:23;11.70;99.90
41058;DHT22;66768;48.884;2.258;2023-12-28T07:07:50;11.70;99.90
41058;DHT22;66768;48.884;2.258;2023-12-28T07:10:17;11.70;99.90
41058;DHT22;66768;48.884;2.258;2023-12-28T07:12:44;11.70;99.90
41058;DHT22;66768;48.884;2.258;2023-12-28T07:15:12;11.70;99.90
41058;DHT22;66768;48.884;2.258;2023-12-28T07:17:40;11.70;99.90
41058;DHT22;66768;48.884;2.258;2023-12-28T07:20:08;11.80;99.90
41058;DHT22;66768;48.884;2.258;2023-12-28T07:22:36;11.70;99.90
41058;DHT22;66768;48.884;2.258;2023-12-28T07:25:04;11.70;99.90
41058;DHT22;66768;48.884;2.258;2023-12-28T07:27:32;11.80;99.90
41058;DHT22;66768;48.884;2.258;2023-12-28T07:29:59;11.80;99.90
41058;DHT22;66768;48.884;2.258;2023-12-28T07:32:28;11.80;99.90
41058;DHT22;66768;48.884;2.258;2023-12-28T07:34:56;11.80;99.90
41058;DHT22;66768;48.884;2.258;2023-12-28T07:37:24;11.80;99.90
41058;DHT22;66768;48.884;2.258;2023-12-28T07:39:51;11.80;99.90
41058;DHT22;66768;48.884;2.258;2023-12-28T07:42:18;11.80;99.90
41058;DHT22;66768;48.884;2.258;2023-12-28T07:44:45;11.80;99.90
41058;DHT22;66768;48.884;2.258;2023-12-28T07:47:12;11.90;99.90
41058;DHT22;66768;48.884;2.258;2023-12-28T07:49:41;11.80;99.90
41058;DHT22;66768;48.884;2.258;2023-12-28T07:52:08;11.90;99.90
41058;DHT22;66768;48.884;2.258;2023-12-28T07:54:35;11.80;99.90
41058;DHT22;66768;48.884;2.258;2023-12-28T07:57:02;11.90;99.90
41058;DHT22;66768;48.884;2.258;2023-12-28T07:59:29;11.90;99.90
41058;DHT22;66768;48.884;2.258;2023-12-28T08:01:56;11.90;99.90
41058;DHT22;66768;48.884;2.258;2023-12-28T08:04:23;11.90;99.90
41058;DHT22;66768;48.884;2.258;2023-12-28T08:06:51;11.90;99.90
41058;DHT22;66768;48.884;2.258;2023-12-28T08:09:18;11.90;99.90
41058;DHT22;66768;48.884;2.258;2023-12-28T08:11:45;11.90;99.90
41058;DHT22;66768;48.884;2.258;2023-12-28T08:14:12;11.90;99.90
41058;DHT22;66768;48.884;2.258;2023-12-28T08:16:39;11.90;99.90
41058;DHT22;66768;48.884;2.258;2023-12-28T08:19:06;11.90;99.90
41058;DHT22;66768;48.884;2.258;2023-12-28T08:21:33;11.90;99.90
41058;DHT22;66768;48.884;2.258;2023-12-28T08:24:02;11.90;99.90
41058;DHT22;66768;48.884;2.258;2023-12-28T08:26:29;11.90;99.90
41058;DHT22;66768;48.884;2.258;2023-12-28T08:28:58;11.90;99.90
41058;DHT22;66768;48.884;2.258;2023-12-28T08:31:25;11.90;99.90
41058;DHT22;66768;48.884;2.258;2023-12-28T08:33:52;11.90;99.90
41058;DHT22;66768;48.884;2.258;2023-12-28T08:36:18;11.90;99.90
41058;DHT22;66768;48.884;2.258;2023-12-28T08:38:45;11.90;99.90
41058;DHT22;66768;48.884;2.258;2023-12-28T08:41:19;11.90;99.90
41058;DHT22;66768;48.884;2.258;2023-12-28T08:43:46;11.90;99.90
41058;DHT22;66768;48.884;2.258;2023-12-28T08:46:13;11.90;99.90
41058;DHT22;66768;48.884;2.258;2023-12-28T08:48:41;11.90;99.90
41058;DHT22;66768;48.884;2.258;2023-12-28T08:51:09;11.90;99.90
41058;DHT22;66768;48.884;2.258;2023-12-28T08:53:36;11.90;99.90
41058;DHT22;66768;48.884;2.258;2023-12-28T08:56:13;11.90;99.90
41058;DHT22;66768;48.884;2.258;2023-12-28T08:58:41;11.90;99.90
41058;DHT22;66768;48.884;2.258;2023-12-28T09:01:08;11.90;99.90
41058;DHT22;66768;48.884;2.258;2023-12-28T09:03:35;11.90;99.90
41058;DHT22;66768;48.884;2.258;2023-12-28T09:06:02;12.00;99.90
41058;DHT22;66768;48.884;2.258;2023-12-28T09:08:29;12.00;99.90
41058;DHT22;66768;48.884;2.258;2023-12-28T09:10:55;12.00;99.90
41058;DHT22;66768;48.884;2.258;2023-12-28T09:13:22;12.10;99.90
41058;DHT22;66768;48.884;2.258;2023-12-28T09:15:51;12.10;99.90
41058;DHT22;66768;48.884;2.258;2023-12-28T09:18:18;12.10;99.90
41058;DHT22;66768;48.884;2.258;2023-12-28T09:20:45;12.10;99.90
41058;DHT22;66768;48.884;2.258;2023-12-28T09:23:12;12.20;99.90
41058;DHT22;66768;48.884;2.258;2023-12-28T09:25:40;12.20;99.90
41058;DHT22;66768;48.884;2.258;2023-12-28T09:28:07;12.20;99.90
41058;DHT22;66768;48.884;2.258;2023-12-28T09:30:34;12.30;99.90
41058;DHT22;66768;48.884;2.258;2023-12-28T09:33:02;12.30;99.90
41058;DHT22;66768;48.884;2.258;2023-12-28T09:35:29;12.30;99.90
41058;DHT22;66768;48.884;2.258;2023-12-28T09:37:56;12.30;99.90
41058;DHT22;66768;48.884;2.258;2023-12-28T09:40:24;12.40;99.90
41058;DHT22;66768;48.884;2.258;2023-12-28T09:42:56;12.40;99.90
41058;DHT22;66768;48.884;2.258;2023-12-28T09:45:24;12.40;99.90
41058;DHT22;66768;48.884;2.258;2023-12-28T09:47:52;12.40;99.90
41058;DHT22;66768;48.884;2.258;2023-12-28T09:50:21;12.40;99.90
41058;DHT22;66768;48.884;2.258;2023-12-28T09:52:52;12.30;99.90
41058;DHT22;66768;48.884;2.258;2023-12-28T09:55:19;12.30;99.90
41058;DHT22;66768;48.884;2.258;2023-12-28T09:57:46;12.30;99.90
41058;DHT22;66768;48.884;2.258;2023-12-28T10:00:13;12.40;99.90
41058;DHT22;66768;48.884;2.258;2023-12-28T10:02:40;12.40;99.90
41058;DHT22;66768;48.884;2.258;2023-12-28T10:05:12;12.40;99.90
41058;DHT22;66768;48.884;2.258;2023-12-28T10:07:42;12.40;99.90
41058;DHT22;66768;48.884;2.258;2023-12-28T10:10:10;12.40;99.90
41058;DHT22;66768;48.884;2.258;2023-12-28T10:12:37;12.40;99.90
41058;DHT22;66768;48.884;2.258;2023-12-28T10:15:05;12.40;99.90
41058;DHT22;66768;48.884;2.258;2023-12-28T10:17:32;12.40;99.90
41058;DHT22;66768;48.884;2.258;2023-12-28T10:20:00;12.40;99.90
41058;DHT22;66768;48.884;2.258;2023-12-28T10:22:30;12.40;99.90
41058;DHT22;66768;48.884;2.258;2023-12-28T10:24:59;12.40;99.90
41058;DHT22;66768;48.884;2.258;2023-12-28T10:27:26;12.40;99.90
41058;DHT22;66768;48.884;2.258;2023-12-28T10:29:54;12.40;99.90
41058;DHT22;66768;48.884;2.258;2023-12-28T10:32:22;12.40;99.90
41058;DHT22;66768;48.884;2.258;2023-12-28T10:34:51;12.50;99.90
41058;DHT22;66768;48.884;2.258;2023-12-28T10:37:20;12.50;99.90
41058;DHT22;66768;48.884;2.258;2023-12-28T10:39:48;12.60;99.90
41058;DHT22;66768;48.884;2.258;2023-12-28T10:42:28;12.60;99.90
41058;DHT22;66768;48.884;2.258;2023-12-28T10:45:02;12.60;99.90
41058;DHT22;66768;48.884;2.258;2023-12-28T10:47:32;12.60;99.90
41058;DHT22;66768;48.884;2.258;2023-12-28T10:50:03;12.60;99.90
41058;DHT22;66768;48.884;2.258;2023-12-28T10:52:31;12.70;99.90
41058;DHT22;66768;48.884;2.258;2023-12-28T10:55:18;12.80;99.90
41058;DHT22;66768;48.884;2.258;2023-12-28T10:57:57;12.80;99.90
41058;DHT22;66768;48.884;2.258;2023-12-28T11:00:27;12.80;99.90
41058;DHT22;66768;48.884;2.258;2023-12-28T11:03:00;12.80;99.90
41058;DHT22;66768;48.884;2.258;2023-12-28T11:05:29;12.80;99.90
41058;DHT22;66768;48.884;2.258;2023-12-28T11:07:58;12.90;99.90
41058;DHT22;66768;48.884;2.258;2023-12-28T11:10:27;12.90;99.90
41058;DHT22;66768;48.884;2.258;2023-12-28T11:12:56;12.90;99.90
41058;DHT22;66768;48.884;2.258;2023-12-28T11:15:24;12.90;99.90
41058;DHT22;66768;48.884;2.258;2023-12-28T11:18:00;12.90;99.90
41058;DHT22;66768;48.884;2.258;2023-12-28T11:20:27;12.90;99.90
41058;DHT22;66768;48.884;2.258;2023-12-28T11:22:54;13.00;99.90
41058;DHT22;66768;48.884;2.258;2023-12-28T11:25:21;13.00;99.90
41058;DHT22;66768;48.884;2.258;2023-12-28T11:27:48;13.00;99.90
41058;DHT22;66768;48.884;2.258;2023-12-28T11:30:15;13.00;99.90
41058;DHT22;66768;48.884;2.258;2023-12-28T11:32:43;13.10;99.90
41058;DHT22;66768;48.884;2.258;2023-12-28T11:35:12;13.10;99.90
41058;DHT22;66768;48.884;2.258;2023-12-28T11:37:42;13.20;99.90
41058;DHT22;66768;48.884;2.258;2023-12-28T11:40:13;13.10;99.90
41058;DHT22;66768;48.884;2.258;2023-12-28T11:42:53;13.20;99.90
41058;DHT22;66768;48.884;2.258;2023-12-28T11:45:21;13.10;99.90
41058;DHT22;66768;48.884;2.258;2023-12-28T11:47:58;13.20;99.90
41058;DHT22;66768;48.884;2.258;2023-12-28T11:50:27;13.20;99.90
41058;DHT22;66768;48.884;2.258;2023-12-28T11:52:54;13.20;99.90
41058;DHT22;66768;48.884;2.258;2023-12-28T11:55:21;13.20;99.90
41058;DHT22;66768;48.884;2.258;2023-12-28T11:57:49;13.30;99.90
41058;DHT22;66768;48.884;2.258;2023-12-28T12:00:16;13.30;99.90
41058;DHT22;66768;48.884;2.258;2023-12-28T12:02:44;13.20;99.90
41058;DHT22;66768;48.884;2.258;2023-12-28T12:05:11;13.20;99.90
41058;DHT22;66768;48.884;2.258;2023-12-28T12:07:40;13.20;99.90
41058;DHT22;66768;48.884;2.258;2023-12-28T12:10:07;13.20;99.90
41058;DHT22;66768;48.884;2.258;2023-12-28T12:12:34;13.20;99.90
41058;DHT22;66768;48.884;2.258;2023-12-28T12:15:01;13.20;99.90
41058;DHT22;66768;48.884;2.258;2023-12-28T12:17:28;13.20;99.90
41058;DHT22;66768;48.884;2.258;2023-12-28T12:19:55;13.20;99.90
41058;DHT22;66768;48.884;2.258;2023-12-28T12:22:23;13.20;99.90
41058;DHT22;66768;48.884;2.258;2023-12-28T12:24:52;13.20;99.90
41058;DHT22;66768;48.884;2.258;2023-12-28T12:27:19;13.30;99.90
41058;DHT22;66768;48.884;2.258;2023-12-28T12:29:46;13.20;99.90
41058;DHT22;66768;48.884;2.258;2023-12-28T12:32:13;13.20;99.90
41058;DHT22;66768;48.884;2.258;2023-12-28T12:34:40;13.30;99.90
41058;DHT22;66768;48.884;2.258;2023-12-28T12:37:07;13.30;99.90
41058;DHT22;66768;48.884;2.258;2023-12-28T12:39:34;13.30;99.90
41058;DHT22;66768;48.884;2.258;2023-12-28T12:42:03;13.30;99.90
41058;DHT22;66768;48.884;2.258;2023-12-28T12:44:30;13.30;99.90
41058;DHT22;66768;48.884;2.258;2023-12-28T12:46:57;13.40;99.90
41058;DHT22;66768;48.884;2.258;2023-12-28T12:49:25;13.40;99.90
41058;DHT22;66768;48.884;2.258;2023-12-28T12:51:52;13.50;99.90
41058;DHT22;66768;48.884;2.258;2023-12-28T12:54:19;13.40;99.90
41058;DHT22;66768;48.884;2.258;2023-12-28T12:56:46;13.50;99.90
41058;DHT22;66768;48.884;2.258;2023-12-28T12:59:14;13.40;99.90
41058;DHT22;66768;48.884;2.258;2023-12-28T13:01:43;13.50;99.90
41058;DHT22;66768;48.884;2.258;2023-12-28T13:04:10;13.50;99.90
41058;DHT22;66768;48.884;2.258;2023-12-28T13:06:37;13.50;99.90
41058;DHT22;66768;48.884;2.258;2023-12-28T13:09:04;13.50;99.90
41058;DHT22;66768;48.884;2.258;2023-12-28T13:11:33;13.60;99.90
41058;DHT22;66768;48.884;2.258;2023-12-28T13:14:00;13.60;99.90
41058;DHT22;66768;48.884;2.258;2023-12-28T13:16:28;13.60;99.90
41058;DHT22;66768;48.884;2.258;2023-12-28T13:18:55;13.60;99.90
41058;DHT22;66768;48.884;2.258;2023-12-28T13:21:22;13.60;99.90
41058;DHT22;66768;48.884;2.258;2023-12-28T13:23:49;13.60;99.90
41058;DHT22;66768;48.884;2.258;2023-12-28T13:26:16;13.60;99.90
41058;DHT22;66768;48.884;2.258;2023-12-28T13:28:42;13.60;99.90
41058;DHT22;66768;48.884;2.258;2023-12-28T13:31:09;13.50;99.90
41058;DHT22;66768;48.884;2.258;2023-12-28T13:33:37;13.60;99.90
41058;DHT22;66768;48.884;2.258;2023-12-28T13:36:04;13.50;99.90
41058;DHT22;66768;48.884;2.258;2023-12-28T13:38:31;13.60;99.90
41058;DHT22;66768;48.884;2.258;2023-12-28T13:40:58;13.50;99.90
41058;DHT22;66768;48.884;2.258;2023-12-28T13:43:25;13.60;99.90
41058;DHT22;66768;48.884;2.258;2023-12-28T13:45:52;13.60;99.90
41058;DHT22;66768;48.884;2.258;2023-12-28T13:48:18;13.50;99.90
41058;DHT22;66768;48.884;2.258;2023-12-28T13:50:47;13.60;99.90
41058;DHT22;66768;48.884;2.258;2023-12-28T13:53:13;13.50;99.90
41058;DHT22;66768;48.884;2.258;2023-12-28T13:55:40;13.50;99.90
41058;DHT22;66768;48.884;2.258;2023-12-28T13:58:07;13.50;99.90
41058;DHT22;66768;48.884;2.258;2023-12-28T14:00:34;13.60;99.90
41058;DHT22;66768;48.884;2.258;2023-12-28T14:03:01;13.60;99.90
41058;DHT22;66768;48.884;2.258;2023-12-28T14:05:28;13.60;99.90
41058;DHT22;66768;48.884;2.258;2023-12-28T14:07:56;13.60;99.90
41058;DHT22;66768;48.884;2.258;2023-12-28T14:10:23;13.60;99.90
41058;DHT22;66768;48.884;2.258;2023-12-28T14:12:50;13.60;99.90
41058;DHT22;66768;48.884;2.258;2023-12-28T14:15:16;13.50;99.90
41058;DHT22;66768;48.884;2.258;2023-12-28T14:17:44;13.50;99.90
41058;DHT22;66768;48.884;2.258;2023-12-28T14:20:11;13.50;99.90
41058;DHT22;66768;48.884;2.258;2023-12-28T14:22:38;13.50;99.90
41058;DHT22;66768;48.884;2.258;2023-12-28T14:25:08;13.50;99.90
41058;DHT22;66768;48.884;2.258;2023-12-28T14:27:37;13.50;99.90
41058;DHT22;66768;48.884;2.258;2023-12-28T14:30:05;13.50;99.90
41058;DHT22;66768;48.884;2.258;2023-12-28T14:32:35;13.50;99.90
41058;DHT22;66768;48.884;2.258;2023-12-28T14:35:03;13.50;99.90
41058;DHT22;66768;48.884;2.258;2023-12-28T14:37:30;13.50;99.90
41058;DHT22;66768;48.884;2.258;2023-12-28T14:39:57;13.50;99.90
41058;DHT22;66768;48.884;2.258;2023-12-28T14:42:25;13.50;99.90
41058;DHT22;66768;48.884;2.258;2023-12-28T14:44:52;13.50;99.90
41058;DHT22;66768;48.884;2.258;2023-12-28T14:47:19;13.50;99.90
41058;DHT22;66768;48.884;2.258;2023-12-28T14:49:45;13.50;99.90
41058;DHT22;66768;48.884;2.258;2023-12-28T14:52:12;13.40;99.90
41058;DHT22;66768;48.884;2.258;2023-12-28T14:54:39;13.40;99.90
41058;DHT22;66768;48.884;2.258;2023-12-28T14:57:06;13.40;99.90
41058;DHT22;66768;48.884;2.258;2023-12-28T14:59:34;13.30;99.90
41058;DHT22;66768;48.884;2.258;2023-12-28T15:02:01;13.40;99.90
41058;DHT22;66768;48.884;2.258;2023-12-28T15:04:28;13.40;99.90
41058;DHT22;66768;48.884;2.258;2023-12-28T15:06:55;13.40;99.90
41058;DHT22;66768;48.884;2.258;2023-12-28T15:09:22;13.40;99.90
41058;DHT22;66768;48.884;2.258;2023-12-28T15:11:49;13.30;99.90
41058;DHT22;66768;48.884;2.258;2023-12-28T15:14:17;13.30;99.90
41058;DHT22;66768;48.884;2.258;2023-12-28T15:16:46;13.30;99.90
41058;DHT22;66768;48.884;2.258;2023-12-28T15:19:13;13.30;99.90
41058;DHT22;66768;48.884;2.258;2023-12-28T15:21:40;13.30;99.90
41058;DHT22;66768;48.884;2.258;2023-12-28T15:24:08;13.30;99.90
41058;DHT22;66768;48.884;2.258;2023-12-28T15:26:35;13.30;99.90
41058;DHT22;66768;48.884;2.258;2023-12-28T15:29:02;13.30;99.90
41058;DHT22;66768;48.884;2.258;2023-12-28T15:31:29;13.30;99.90
41058;DHT22;66768;48.884;2.258;2023-12-28T15:33:57;13.30;99.90